sensor_id;sensor_type;location;lat;lon;timestamp;P1;durP1;ratioP1;P2;durP2;ratioP2
18443;SDS011;9350;53.176;8.194;2023-12-20T00:01:43;13.50;;;1.83;;
18443;SDS011;9350;53.176;8.194;2023-12-20T00:04:10;7.63;;;1.40;;
18443;SDS011;9350;53.176;8.194;2023-12-20T00:06:36;11.85;;;1.95;;
18443;SDS011;9350;53.176;8.194;2023-12-20T00:09:03;11.60;;;1.70;;
18443;SDS011;9350;53.176;8.194;2023-12-20T00:11:30;8.32;;;1.92;;
18443;SDS011;9350;53.176;8.194;2023-12-20T00:13:58;5.97;;;1.40;;
18443;SDS011;9350;53.176;8.194;2023-12-20T00:16:25;19.55;;;1.92;;
18443;SDS011;9350;53.176;8.194;2023-12-20T00:18:52;16.67;;;2.13;;
18443;SDS011;9350;53.176;8.194;2023-12-20T00:21:19;6.93;;;1.90;;
18443;SDS011;9350;53.176;8.194;2023-12-20T00:23:45;5.93;;;1.50;;
18443;SDS011;9350;53.176;8.194;2023-12-20T00:26:12;5.65;;;1.63;;
18443;SDS011;9350;53.176;8.194;2023-12-20T00:28:39;10.05;;;1.58;;
18443;SDS011;9350;53.176;8.194;2023-12-20T00:31:09;8.25;;;1.65;;
18443;SDS011;9350;53.176;8.194;2023-12-20T00:33:35;7.15;;;1.40;;
18443;SDS011;9350;53.176;8.194;2023-12-20T00:36:02;12.07;;;1.70;;
18443;SDS011;9350;53.176;8.194;2023-12-20T00:38:30;9.15;;;2.30;;
18443;SDS011;9350;53.176;8.194;2023-12-20T00:40:57;11.48;;;2.10;;
18443;SDS011;9350;53.176;8.194;2023-12-20T00:43:24;14.35;;;2.20;;
18443;SDS011;9350;53.176;8.194;2023-12-20T00:45:51;7.55;;;1.88;;
18443;SDS011;9350;53.176;8.194;2023-12-20T00:48:19;6.60;;;1.60;;
18443;SDS011;9350;53.176;8.194;2023-12-20T00:50:46;6.03;;;1.98;;
18443;SDS011;9350;53.176;8.194;2023-12-20T00:53:13;11.10;;;1.50;;
18443;SDS011;9350;53.176;8.194;2023-12-20T00:55:39;10.82;;;1.85;;
18443;SDS011;9350;53.176;8.194;2023-12-20T00:58:06;6.85;;;1.67;;
18443;SDS011;9350;53.176;8.194;2023-12-20T01:00:33;10.55;;;1.77;;
18443;SDS011;9350;53.176;8.194;2023-12-20T01:03:00;7.32;;;1.60;;
18443;SDS011;9350;53.176;8.194;2023-12-20T01:05:28;17.08;;;1.95;;
18443;SDS011;9350;53.176;8.194;2023-12-20T01:07:55;12.52;;;1.80;;
18443;SDS011;9350;53.176;8.194;2023-12-20T01:10:22;8.10;;;1.73;;
18443;SDS011;9350;53.176;8.194;2023-12-20T01:12:48;4.65;;;1.70;;
18443;SDS011;9350;53.176;8.194;2023-12-20T01:15:15;7.60;;;1.60;;
18443;SDS011;9350;53.176;8.194;2023-12-20T01:17:42;6.43;;;1.63;;
18443;SDS011;9350;53.176;8.194;2023-12-20T01:20:09;12.80;;;1.60;;
18443;SDS011;9350;53.176;8.194;2023-12-20T01:22:37;9.25;;;1.75;;
18443;SDS011;9350;53.176;8.194;2023-12-20T01:25:05;8.98;;;1.60;;
18443;SDS011;9350;53.176;8.194;2023-12-20T01:27:32;16.35;;;1.88;;
18443;SDS011;9350;53.176;8.194;2023-12-20T01:29:58;4.00;;;1.42;;
18443;SDS011;9350;53.176;8.194;2023-12-20T01:32:25;8.43;;;1.67;;
18443;SDS011;9350;53.176;8.194;2023-12-20T01:34:52;9.95;;;1.63;;
18443;SDS011;9350;53.176;8.194;2023-12-20T01:37:19;7.15;;;1.67;;
18443;SDS011;9350;53.176;8.194;2023-12-20T01:39:47;10.57;;;2.13;;
18443;SDS011;9350;53.176;8.194;2023-12-20T01:42:13;6.85;;;1.60;;
18443;SDS011;9350;53.176;8.194;2023-12-20T01:44:40;12.57;;;2.08;;
18443;SDS011;9350;53.176;8.194;2023-12-20T01:47:07;6.18;;;1.33;;
18443;SDS011;9350;53.176;8.194;2023-12-20T01:49:34;10.98;;;2.03;;
18443;SDS011;9350;53.176;8.194;2023-12-20T01:52:02;9.55;;;2.08;;
18443;SDS011;9350;53.176;8.194;2023-12-20T01:54:29;5.40;;;1.65;;
18443;SDS011;9350;53.176;8.194;2023-12-20T01:56:58;20.30;;;2.40;;
18443;SDS011;9350;53.176;8.194;2023-12-20T01:59:25;10.82;;;1.70;;
18443;SDS011;9350;53.176;8.194;2023-12-20T02:01:52;5.93;;;1.83;;
18443;SDS011;9350;53.176;8.194;2023-12-20T02:04:19;11.35;;;1.73;;
18443;SDS011;9350;53.176;8.194;2023-12-20T02:06:46;5.10;;;1.60;;
18443;SDS011;9350;53.176;8.194;2023-12-20T02:09:14;6.85;;;1.60;;
18443;SDS011;9350;53.176;8.194;2023-12-20T02:11:41;8.00;;;1.90;;
18443;SDS011;9350;53.176;8.194;2023-12-20T02:14:10;5.03;;;1.63;;
18443;SDS011;9350;53.176;8.194;2023-12-20T02:16:37;13.70;;;1.75;;
18443;SDS011;9350;53.176;8.194;2023-12-20T02:19:04;9.80;;;1.95;;
18443;SDS011;9350;53.176;8.194;2023-12-20T02:21:40;8.30;;;1.80;;
18443;SDS011;9350;53.176;8.194;2023-12-20T02:24:07;12.35;;;2.13;;
18443;SDS011;9350;53.176;8.194;2023-12-20T02:26:34;10.23;;;1.75;;
18443;SDS011;9350;53.176;8.194;2023-12-20T02:29:01;10.35;;;1.30;;
18443;SDS011;9350;53.176;8.194;2023-12-20T02:31:28;13.20;;;2.10;;
18443;SDS011;9350;53.176;8.194;2023-12-20T02:33:55;12.43;;;1.88;;
18443;SDS011;9350;53.176;8.194;2023-12-20T02:36:21;10.82;;;1.88;;
18443;SDS011;9350;53.176;8.194;2023-12-20T02:38:49;13.50;;;2.20;;
18443;SDS011;9350;53.176;8.194;2023-12-20T02:41:16;14.25;;;1.85;;
18443;SDS011;9350;53.176;8.194;2023-12-20T02:43:43;11.05;;;2.03;;
18443;SDS011;9350;53.176;8.194;2023-12-20T02:46:10;7.40;;;1.90;;
18443;SDS011;9350;53.176;8.194;2023-12-20T02:48:37;9.02;;;1.83;;
18443;SDS011;9350;53.176;8.194;2023-12-20T02:51:04;7.40;;;2.15;;
18443;SDS011;9350;53.176;8.194;2023-12-20T02:53:31;12.27;;;1.70;;
18443;SDS011;9350;53.176;8.194;2023-12-20T02:55:59;12.65;;;1.70;;
18443;SDS011;9350;53.176;8.194;2023-12-20T02:58:26;8.73;;;2.35;;
18443;SDS011;9350;53.176;8.194;2023-12-20T03:00:52;14.93;;;1.70;;
18443;SDS011;9350;53.176;8.194;2023-12-20T03:03:19;10.10;;;2.03;;
18443;SDS011;9350;53.176;8.194;2023-12-20T03:05:46;11.13;;;1.80;;
18443;SDS011;9350;53.176;8.194;2023-12-20T03:08:13;13.43;;;2.20;;
18443;SDS011;9350;53.176;8.194;2023-12-20T03:10:39;13.63;;;2.35;;
18443;SDS011;9350;53.176;8.194;2023-12-20T03:13:08;10.52;;;1.60;;
18443;SDS011;9350;53.176;8.194;2023-12-20T03:15:34;13.13;;;2.20;;
18443;SDS011;9350;53.176;8.194;2023-12-20T03:18:02;11.15;;;1.95;;
18443;SDS011;9350;53.176;8.194;2023-12-20T03:20:29;11.52;;;2.35;;
18443;SDS011;9350;53.176;8.194;2023-12-20T03:22:59;9.73;;;1.80;;
18443;SDS011;9350;53.176;8.194;2023-12-20T03:25:25;9.90;;;2.05;;
18443;SDS011;9350;53.176;8.194;2023-12-20T03:27:52;15.68;;;2.45;;
18443;SDS011;9350;53.176;8.194;2023-12-20T03:30:21;6.45;;;1.90;;
18443;SDS011;9350;53.176;8.194;2023-12-20T03:32:47;11.18;;;1.98;;
18443;SDS011;9350;53.176;8.194;2023-12-20T03:35:14;10.52;;;2.20;;
18443;SDS011;9350;53.176;8.194;2023-12-20T03:37:41;13.82;;;2.30;;
18443;SDS011;9350;53.176;8.194;2023-12-20T03:40:08;9.95;;;1.83;;
18443;SDS011;9350;53.176;8.194;2023-12-20T03:42:36;17.45;;;2.50;;
18443;SDS011;9350;53.176;8.194;2023-12-20T03:45:02;9.57;;;1.90;;
18443;SDS011;9350;53.176;8.194;2023-12-20T03:47:31;8.70;;;1.90;;
18443;SDS011;9350;53.176;8.194;2023-12-20T03:49:58;12.55;;;1.70;;
18443;SDS011;9350;53.176;8.194;2023-12-20T03:52:24;7.15;;;1.73;;
18443;SDS011;9350;53.176;8.194;2023-12-20T03:54:51;7.55;;;1.80;;
18443;SDS011;9350;53.176;8.194;2023-12-20T03:57:18;11.00;;;1.80;;
18443;SDS011;9350;53.176;8.194;2023-12-20T03:59:45;8.00;;;1.90;;
18443;SDS011;9350;53.176;8.194;2023-12-20T04:02:12;8.57;;;1.85;;
18443;SDS011;9350;53.176;8.194;2023-12-20T04:04:40;17.98;;;2.65;;
18443;SDS011;9350;53.176;8.194;2023-12-20T04:07:07;10.38;;;1.98;;
18443;SDS011;9350;53.176;8.194;2023-12-20T04:09:33;8.43;;;2.00;;
18443;SDS011;9350;53.176;8.194;2023-12-20T04:12:00;12.77;;;2.25;;
18443;SDS011;9350;53.176;8.194;2023-12-20T04:14:27;13.88;;;1.95;;
18443;SDS011;9350;53.176;8.194;2023-12-20T04:16:54;16.05;;;2.45;;
18443;SDS011;9350;53.176;8.194;2023-12-20T04:19:21;4.72;;;1.83;;
18443;SDS011;9350;53.176;8.194;2023-12-20T04:21:49;12.98;;;2.70;;
18443;SDS011;9350;53.176;8.194;2023-12-20T04:24:15;9.68;;;1.98;;
18443;SDS011;9350;53.176;8.194;2023-12-20T04:26:42;8.38;;;2.13;;
18443;SDS011;9350;53.176;8.194;2023-12-20T04:29:09;12.27;;;2.03;;
18443;SDS011;9350;53.176;8.194;2023-12-20T04:31:36;18.08;;;2.13;;
18443;SDS011;9350;53.176;8.194;2023-12-20T04:34:02;16.33;;;2.58;;
18443;SDS011;9350;53.176;8.194;2023-12-20T04:36:29;10.10;;;2.10;;
18443;SDS011;9350;53.176;8.194;2023-12-20T04:38:57;15.43;;;2.42;;
18443;SDS011;9350;53.176;8.194;2023-12-20T04:41:24;9.30;;;1.90;;
18443;SDS011;9350;53.176;8.194;2023-12-20T04:43:52;15.38;;;2.65;;
18443;SDS011;9350;53.176;8.194;2023-12-20T04:46:19;9.60;;;2.10;;
18443;SDS011;9350;53.176;8.194;2023-12-20T04:48:46;15.10;;;2.50;;
18443;SDS011;9350;53.176;8.194;2023-12-20T04:51:13;13.48;;;2.40;;
18443;SDS011;9350;53.176;8.194;2023-12-20T04:53:39;20.20;;;2.65;;
18443;SDS011;9350;53.176;8.194;2023-12-20T04:56:08;12.40;;;2.45;;
18443;SDS011;9350;53.176;8.194;2023-12-20T04:58:34;14.73;;;2.63;;
18443;SDS011;9350;53.176;8.194;2023-12-20T05:01:01;21.55;;;2.72;;
18443;SDS011;9350;53.176;8.194;2023-12-20T05:03:29;19.38;;;2.85;;
18443;SDS011;9350;53.176;8.194;2023-12-20T05:05:55;20.70;;;2.70;;
18443;SDS011;9350;53.176;8.194;2023-12-20T05:08:22;18.55;;;2.85;;
18443;SDS011;9350;53.176;8.194;2023-12-20T05:10:50;7.75;;;2.13;;
18443;SDS011;9350;53.176;8.194;2023-12-20T05:13:18;11.32;;;2.15;;
18443;SDS011;9350;53.176;8.194;2023-12-20T05:15:45;10.73;;;2.50;;
18443;SDS011;9350;53.176;8.194;2023-12-20T05:18:12;22.60;;;2.90;;
18443;SDS011;9350;53.176;8.194;2023-12-20T05:20:39;11.55;;;2.30;;
18443;SDS011;9350;53.176;8.194;2023-12-20T05:23:05;13.93;;;2.30;;
18443;SDS011;9350;53.176;8.194;2023-12-20T05:25:32;9.98;;;3.10;;
18443;SDS011;9350;53.176;8.194;2023-12-20T05:27:59;10.20;;;2.50;;
18443;SDS011;9350;53.176;8.194;2023-12-20T05:30:27;18.08;;;2.42;;
18443;SDS011;9350;53.176;8.194;2023-12-20T05:32:54;14.35;;;2.47;;
18443;SDS011;9350;53.176;8.194;2023-12-20T05:35:21;11.75;;;2.42;;
18443;SDS011;9350;53.176;8.194;2023-12-20T05:37:48;19.27;;;2.55;;
18443;SDS011;9350;53.176;8.194;2023-12-20T05:40:15;21.02;;;3.25;;
18443;SDS011;9350;53.176;8.194;2023-12-20T05:42:42;16.77;;;2.75;;
18443;SDS011;9350;53.176;8.194;2023-12-20T05:45:09;20.00;;;2.63;;
18443;SDS011;9350;53.176;8.194;2023-12-20T05:47:37;23.98;;;3.30;;
18443;SDS011;9350;53.176;8.194;2023-12-20T05:50:04;21.58;;;3.08;;
18443;SDS011;9350;53.176;8.194;2023-12-20T05:52:32;16.25;;;2.78;;
18443;SDS011;9350;53.176;8.194;2023-12-20T05:54:58;23.63;;;3.45;;
18443;SDS011;9350;53.176;8.194;2023-12-20T05:57:26;24.23;;;3.53;;
18443;SDS011;9350;53.176;8.194;2023-12-20T05:59:53;24.25;;;3.47;;
18443;SDS011;9350;53.176;8.194;2023-12-20T06:02:20;19.70;;;3.63;;
18443;SDS011;9350;53.176;8.194;2023-12-20T06:04:48;18.40;;;3.47;;
18443;SDS011;9350;53.176;8.194;2023-12-20T06:07:15;16.52;;;2.65;;
18443;SDS011;9350;53.176;8.194;2023-12-20T06:09:42;18.05;;;3.38;;
18443;SDS011;9350;53.176;8.194;2023-12-20T06:12:09;16.70;;;3.15;;
18443;SDS011;9350;53.176;8.194;2023-12-20T06:14:36;17.10;;;2.95;;
18443;SDS011;9350;53.176;8.194;2023-12-20T06:17:03;19.73;;;2.42;;
18443;SDS011;9350;53.176;8.194;2023-12-20T06:19:30;20.90;;;3.00;;
18443;SDS011;9350;53.176;8.194;2023-12-20T06:21:58;18.58;;;2.90;;
18443;SDS011;9350;53.176;8.194;2023-12-20T06:24:25;16.60;;;2.95;;
18443;SDS011;9350;53.176;8.194;2023-12-20T06:26:53;33.03;;;3.15;;
18443;SDS011;9350;53.176;8.194;2023-12-20T06:29:20;16.42;;;3.10;;
18443;SDS011;9350;53.176;8.194;2023-12-20T06:31:47;20.77;;;3.35;;
18443;SDS011;9350;53.176;8.194;2023-12-20T06:34:13;16.40;;;3.25;;
18443;SDS011;9350;53.176;8.194;2023-12-20T06:36:40;24.40;;;2.90;;
18443;SDS011;9350;53.176;8.194;2023-12-20T06:39:08;21.13;;;2.88;;
18443;SDS011;9350;53.176;8.194;2023-12-20T06:41:37;26.98;;;3.97;;
18443;SDS011;9350;53.176;8.194;2023-12-20T06:44:04;15.32;;;3.22;;
18443;SDS011;9350;53.176;8.194;2023-12-20T06:46:31;22.45;;;3.40;;
18443;SDS011;9350;53.176;8.194;2023-12-20T06:48:58;16.52;;;2.90;;
18443;SDS011;9350;53.176;8.194;2023-12-20T06:51:24;27.52;;;3.30;;
18443;SDS011;9350;53.176;8.194;2023-12-20T06:53:51;20.85;;;2.80;;
18443;SDS011;9350;53.176;8.194;2023-12-20T06:56:19;29.50;;;4.00;;
18443;SDS011;9350;53.176;8.194;2023-12-20T06:58:46;28.40;;;4.82;;
18443;SDS011;9350;53.176;8.194;2023-12-20T07:01:12;21.63;;;3.38;;
18443;SDS011;9350;53.176;8.194;2023-12-20T07:03:39;15.82;;;3.00;;
18443;SDS011;9350;53.176;8.194;2023-12-20T07:06:06;18.83;;;3.80;;
18443;SDS011;9350;53.176;8.194;2023-12-20T07:08:33;17.30;;;3.17;;
18443;SDS011;9350;53.176;8.194;2023-12-20T07:11:00;20.95;;;3.45;;
18443;SDS011;9350;53.176;8.194;2023-12-20T07:13:28;28.38;;;3.50;;
18443;SDS011;9350;53.176;8.194;2023-12-20T07:15:56;16.30;;;3.38;;
18443;SDS011;9350;53.176;8.194;2023-12-20T07:18:23;22.35;;;2.88;;
18443;SDS011;9350;53.176;8.194;2023-12-20T07:20:49;25.05;;;3.78;;
18443;SDS011;9350;53.176;8.194;2023-12-20T07:23:15;15.02;;;3.42;;
18443;SDS011;9350;53.176;8.194;2023-12-20T07:25:42;23.13;;;3.60;;
18443;SDS011;9350;53.176;8.194;2023-12-20T07:28:09;21.13;;;2.92;;
18443;SDS011;9350;53.176;8.194;2023-12-20T07:30:37;18.60;;;4.18;;
18443;SDS011;9350;53.176;8.194;2023-12-20T07:33:04;13.70;;;2.88;;
18443;SDS011;9350;53.176;8.194;2023-12-20T07:35:33;21.67;;;3.15;;
18443;SDS011;9350;53.176;8.194;2023-12-20T07:38:00;14.73;;;3.15;;
18443;SDS011;9350;53.176;8.194;2023-12-20T07:40:27;21.27;;;3.60;;
18443;SDS011;9350;53.176;8.194;2023-12-20T07:42:54;21.63;;;4.28;;
18443;SDS011;9350;53.176;8.194;2023-12-20T07:45:21;20.08;;;3.28;;
18443;SDS011;9350;53.176;8.194;2023-12-20T07:47:49;22.35;;;2.90;;
18443;SDS011;9350;53.176;8.194;2023-12-20T07:50:16;20.50;;;3.10;;
18443;SDS011;9350;53.176;8.194;2023-12-20T07:52:42;17.65;;;3.40;;
18443;SDS011;9350;53.176;8.194;2023-12-20T07:55:09;22.17;;;3.50;;
18443;SDS011;9350;53.176;8.194;2023-12-20T07:57:36;25.92;;;3.63;;
18443;SDS011;9350;53.176;8.194;2023-12-20T08:00:03;17.77;;;3.50;;
18443;SDS011;9350;53.176;8.194;2023-12-20T08:02:31;18.67;;;3.47;;
18443;SDS011;9350;53.176;8.194;2023-12-20T08:04:59;16.45;;;2.97;;
18443;SDS011;9350;53.176;8.194;2023-12-20T08:07:26;19.42;;;3.25;;
18443;SDS011;9350;53.176;8.194;2023-12-20T08:09:52;22.98;;;3.40;;
18443;SDS011;9350;53.176;8.194;2023-12-20T08:12:20;26.38;;;3.28;;
18443;SDS011;9350;53.176;8.194;2023-12-20T08:14:46;17.42;;;3.83;;
18443;SDS011;9350;53.176;8.194;2023-12-20T08:17:13;21.63;;;4.13;;
18443;SDS011;9350;53.176;8.194;2023-12-20T08:19:41;21.83;;;3.40;;
18443;SDS011;9350;53.176;8.194;2023-12-20T08:22:09;22.58;;;3.35;;
18443;SDS011;9350;53.176;8.194;2023-12-20T08:24:36;20.60;;;4.10;;
18443;SDS011;9350;53.176;8.194;2023-12-20T08:27:03;22.05;;;3.22;;
18443;SDS011;9350;53.176;8.194;2023-12-20T08:29:30;17.23;;;3.30;;
18443;SDS011;9350;53.176;8.194;2023-12-20T08:31:57;15.55;;;2.90;;
18443;SDS011;9350;53.176;8.194;2023-12-20T08:34:24;24.85;;;3.88;;
18443;SDS011;9350;53.176;8.194;2023-12-20T08:36:50;24.85;;;3.88;;
18443;SDS011;9350;53.176;8.194;2023-12-20T08:39:19;20.25;;;3.22;;
18443;SDS011;9350;53.176;8.194;2023-12-20T08:41:45;13.18;;;2.97;;
18443;SDS011;9350;53.176;8.194;2023-12-20T08:44:12;21.33;;;3.50;;
18443;SDS011;9350;53.176;8.194;2023-12-20T08:46:39;15.27;;;2.97;;
18443;SDS011;9350;53.176;8.194;2023-12-20T08:49:06;20.73;;;3.42;;
18443;SDS011;9350;53.176;8.194;2023-12-20T08:51:34;23.10;;;3.65;;
18443;SDS011;9350;53.176;8.194;2023-12-20T08:54:00;14.32;;;2.92;;
18443;SDS011;9350;53.176;8.194;2023-12-20T08:56:30;18.25;;;3.30;;
18443;SDS011;9350;53.176;8.194;2023-12-20T08:58:56;16.10;;;3.38;;
18443;SDS011;9350;53.176;8.194;2023-12-20T09:01:23;17.52;;;3.03;;
18443;SDS011;9350;53.176;8.194;2023-12-20T09:03:50;25.00;;;4.05;;
18443;SDS011;9350;53.176;8.194;2023-12-20T09:06:17;21.70;;;3.60;;
18443;SDS011;9350;53.176;8.194;2023-12-20T09:08:43;14.80;;;3.20;;
18443;SDS011;9350;53.176;8.194;2023-12-20T09:11:10;22.92;;;3.33;;
18443;SDS011;9350;53.176;8.194;2023-12-20T09:13:38;22.08;;;3.28;;
18443;SDS011;9350;53.176;8.194;2023-12-20T09:16:05;27.52;;;3.95;;
18443;SDS011;9350;53.176;8.194;2023-12-20T09:18:32;8.60;;;1.90;;
18443;SDS011;9350;53.176;8.194;2023-12-20T09:20:59;6.55;;;1.45;;
18443;SDS011;9350;53.176;8.194;2023-12-20T09:23:25;7.93;;;1.73;;
18443;SDS011;9350;53.176;8.194;2023-12-20T09:25:52;5.38;;;1.33;;
18443;SDS011;9350;53.176;8.194;2023-12-20T09:28:19;2.78;;;0.90;;
18443;SDS011;9350;53.176;8.194;2023-12-20T09:30:47;5.97;;;0.98;;
18443;SDS011;9350;53.176;8.194;2023-12-20T09:33:14;3.35;;;1.40;;
18443;SDS011;9350;53.176;8.194;2023-12-20T09:35:41;5.47;;;1.40;;
18443;SDS011;9350;53.176;8.194;2023-12-20T09:38:09;1.25;;;0.80;;
18443;SDS011;9350;53.176;8.194;2023-12-20T09:40:36;4.50;;;1.05;;
18443;SDS011;9350;53.176;8.194;2023-12-20T09:43:08;7.68;;;1.40;;
18443;SDS011;9350;53.176;8.194;2023-12-20T09:45:37;4.35;;;1.25;;
18443;SDS011;9350;53.176;8.194;2023-12-20T09:48:08;3.00;;;0.93;;
18443;SDS011;9350;53.176;8.194;2023-12-20T09:50:36;8.77;;;1.17;;
18443;SDS011;9350;53.176;8.194;2023-12-20T09:53:03;3.45;;;1.20;;
18443;SDS011;9350;53.176;8.194;2023-12-20T09:55:34;8.75;;;1.50;;
18443;SDS011;9350;53.176;8.194;2023-12-20T09:58:02;4.53;;;0.98;;
18443;SDS011;9350;53.176;8.194;2023-12-20T10:00:30;5.18;;;1.48;;
18443;SDS011;9350;53.176;8.194;2023-12-20T10:02:57;5.97;;;1.15;;
18443;SDS011;9350;53.176;8.194;2023-12-20T10:05:27;3.72;;;1.08;;
18443;SDS011;9350;53.176;8.194;2023-12-20T10:07:55;5.80;;;1.42;;
18443;SDS011;9350;53.176;8.194;2023-12-20T10:10:22;6.82;;;1.40;;
18443;SDS011;9350;53.176;8.194;2023-12-20T10:15:32;7.47;;;1.42;;
18443;SDS011;9350;53.176;8.194;2023-12-20T10:17:59;9.05;;;1.20;;
18443;SDS011;9350;53.176;8.194;2023-12-20T10:20:28;5.10;;;1.30;;
18443;SDS011;9350;53.176;8.194;2023-12-20T10:22:54;2.88;;;1.60;;
18443;SDS011;9350;53.176;8.194;2023-12-20T10:25:22;2.92;;;1.20;;
18443;SDS011;9350;53.176;8.194;2023-12-20T10:27:49;5.88;;;1.10;;
18443;SDS011;9350;53.176;8.194;2023-12-20T10:30:16;4.82;;;0.95;;
18443;SDS011;9350;53.176;8.194;2023-12-20T10:32:43;3.70;;;1.20;;
18443;SDS011;9350;53.176;8.194;2023-12-20T10:35:10;5.20;;;1.40;;
18443;SDS011;9350;53.176;8.194;2023-12-20T10:37:38;6.07;;;1.27;;
18443;SDS011;9350;53.176;8.194;2023-12-20T10:40:05;4.82;;;1.67;;
18443;SDS011;9350;53.176;8.194;2023-12-20T10:42:34;5.93;;;1.50;;
18443;SDS011;9350;53.176;8.194;2023-12-20T10:45:02;6.10;;;1.25;;
18443;SDS011;9350;53.176;8.194;2023-12-20T10:47:30;7.43;;;1.40;;
18443;SDS011;9350;53.176;8.194;2023-12-20T10:49:58;5.22;;;1.40;;
18443;SDS011;9350;53.176;8.194;2023-12-20T10:52:26;8.27;;;1.40;;
18443;SDS011;9350;53.176;8.194;2023-12-20T10:54:56;9.20;;;1.55;;
18443;SDS011;9350;53.176;8.194;2023-12-20T10:57:23;7.68;;;1.48;;
18443;SDS011;9350;53.176;8.194;2023-12-20T10:59:53;9.30;;;1.55;;
18443;SDS011;9350;53.176;8.194;2023-12-20T11:02:21;6.70;;;1.75;;
18443;SDS011;9350;53.176;8.194;2023-12-20T11:04:50;8.60;;;3.78;;
18443;SDS011;9350;53.176;8.194;2023-12-20T11:07:21;9.18;;;1.52;;
18443;SDS011;9350;53.176;8.194;2023-12-20T11:09:56;8.73;;;1.50;;
18443;SDS011;9350;53.176;8.194;2023-12-20T11:12:29;7.35;;;1.25;;
18443;SDS011;9350;53.176;8.194;2023-12-20T11:15:02;5.88;;;1.38;;
18443;SDS011;9350;53.176;8.194;2023-12-20T11:17:31;8.85;;;1.50;;
18443;SDS011;9350;53.176;8.194;2023-12-20T11:20:05;10.52;;;1.45;;
18443;SDS011;9350;53.176;8.194;2023-12-20T11:22:35;9.90;;;1.50;;
18443;SDS011;9350;53.176;8.194;2023-12-20T11:25:05;9.65;;;1.48;;
18443;SDS011;9350;53.176;8.194;2023-12-20T11:27:33;7.57;;;1.48;;
18443;SDS011;9350;53.176;8.194;2023-12-20T11:30:00;5.40;;;1.30;;
18443;SDS011;9350;53.176;8.194;2023-12-20T11:32:31;6.70;;;1.55;;
18443;SDS011;9350;53.176;8.194;2023-12-20T11:35:00;5.35;;;1.40;;
18443;SDS011;9350;53.176;8.194;2023-12-20T11:37:42;6.00;;;1.35;;
18443;SDS011;9350;53.176;8.194;2023-12-20T11:40:13;17.85;;;1.80;;
18443;SDS011;9350;53.176;8.194;2023-12-20T11:42:41;10.85;;;1.73;;
18443;SDS011;9350;53.176;8.194;2023-12-20T11:45:09;18.33;;;2.30;;
18443;SDS011;9350;53.176;8.194;2023-12-20T11:47:36;8.43;;;1.63;;
18443;SDS011;9350;53.176;8.194;2023-12-20T11:50:04;7.68;;;1.65;;
18443;SDS011;9350;53.176;8.194;2023-12-20T11:52:32;11.57;;;2.00;;
18443;SDS011;9350;53.176;8.194;2023-12-20T11:54:58;13.18;;;2.03;;
18443;SDS011;9350;53.176;8.194;2023-12-20T11:57:26;16.27;;;2.45;;
18443;SDS011;9350;53.176;8.194;2023-12-20T11:59:53;6.30;;;2.05;;
18443;SDS011;9350;53.176;8.194;2023-12-20T12:02:21;12.60;;;2.13;;
18443;SDS011;9350;53.176;8.194;2023-12-20T12:04:48;14.73;;;2.28;;
18443;SDS011;9350;53.176;8.194;2023-12-20T12:07:16;12.35;;;1.90;;
18443;SDS011;9350;53.176;8.194;2023-12-20T12:09:42;20.48;;;2.50;;
18443;SDS011;9350;53.176;8.194;2023-12-20T12:12:10;17.23;;;2.33;;
18443;SDS011;9350;53.176;8.194;2023-12-20T12:14:39;8.75;;;1.67;;
18443;SDS011;9350;53.176;8.194;2023-12-20T12:17:09;14.45;;;1.90;;
18443;SDS011;9350;53.176;8.194;2023-12-20T12:19:36;17.73;;;2.35;;
18443;SDS011;9350;53.176;8.194;2023-12-20T12:22:04;13.48;;;2.05;;
18443;SDS011;9350;53.176;8.194;2023-12-20T12:24:32;14.80;;;2.35;;
18443;SDS011;9350;53.176;8.194;2023-12-20T12:26:59;16.08;;;2.65;;
18443;SDS011;9350;53.176;8.194;2023-12-20T12:29:26;16.17;;;2.20;;
18443;SDS011;9350;53.176;8.194;2023-12-20T12:31:54;16.42;;;2.40;;
18443;SDS011;9350;53.176;8.194;2023-12-20T12:34:21;11.05;;;2.38;;
18443;SDS011;9350;53.176;8.194;2023-12-20T12:36:48;14.20;;;2.40;;
18443;SDS011;9350;53.176;8.194;2023-12-20T12:39:15;14.65;;;2.13;;
18443;SDS011;9350;53.176;8.194;2023-12-20T12:41:44;12.32;;;2.17;;
18443;SDS011;9350;53.176;8.194;2023-12-20T12:44:11;13.10;;;2.97;;
18443;SDS011;9350;53.176;8.194;2023-12-20T12:46:38;11.02;;;2.40;;
18443;SDS011;9350;53.176;8.194;2023-12-20T12:49:06;10.75;;;2.00;;
18443;SDS011;9350;53.176;8.194;2023-12-20T12:51:32;10.43;;;2.08;;
18443;SDS011;9350;53.176;8.194;2023-12-20T12:53:59;15.65;;;2.03;;
18443;SDS011;9350;53.176;8.194;2023-12-20T12:56:26;19.20;;;2.15;;
18443;SDS011;9350;53.176;8.194;2023-12-20T12:58:53;12.13;;;2.10;;
18443;SDS011;9350;53.176;8.194;2023-12-20T13:01:20;10.68;;;1.80;;
18443;SDS011;9350;53.176;8.194;2023-12-20T13:03:46;12.73;;;2.40;;
18443;SDS011;9350;53.176;8.194;2023-12-20T13:06:15;12.18;;;1.95;;
18443;SDS011;9350;53.176;8.194;2023-12-20T13:08:42;17.65;;;2.40;;
18443;SDS011;9350;53.176;8.194;2023-12-20T13:11:09;22.67;;;3.50;;
18443;SDS011;9350;53.176;8.194;2023-12-20T13:13:36;17.92;;;2.75;;
18443;SDS011;9350;53.176;8.194;2023-12-20T13:16:03;13.48;;;2.17;;
18443;SDS011;9350;53.176;8.194;2023-12-20T13:18:30;12.48;;;2.63;;
18443;SDS011;9350;53.176;8.194;2023-12-20T13:20:57;18.40;;;2.58;;
18443;SDS011;9350;53.176;8.194;2023-12-20T13:23:25;9.90;;;2.50;;
18443;SDS011;9350;53.176;8.194;2023-12-20T13:25:52;15.82;;;2.70;;
18443;SDS011;9350;53.176;8.194;2023-12-20T13:28:19;13.55;;;2.67;;
18443;SDS011;9350;53.176;8.194;2023-12-20T13:30:45;22.50;;;3.08;;
18443;SDS011;9350;53.176;8.194;2023-12-20T13:33:12;17.00;;;2.97;;
18443;SDS011;9350;53.176;8.194;2023-12-20T13:35:39;15.15;;;2.45;;
18443;SDS011;9350;53.176;8.194;2023-12-20T13:38:06;10.63;;;2.63;;
18443;SDS011;9350;53.176;8.194;2023-12-20T13:40:34;18.80;;;2.72;;
18443;SDS011;9350;53.176;8.194;2023-12-20T13:43:01;15.35;;;2.50;;
18443;SDS011;9350;53.176;8.194;2023-12-20T13:45:28;17.73;;;2.53;;
18443;SDS011;9350;53.176;8.194;2023-12-20T13:47:55;11.98;;;2.53;;
18443;SDS011;9350;53.176;8.194;2023-12-20T13:50:22;13.25;;;2.20;;
18443;SDS011;9350;53.176;8.194;2023-12-20T13:52:49;14.93;;;2.70;;
18443;SDS011;9350;53.176;8.194;2023-12-20T13:55:15;16.80;;;2.70;;
18443;SDS011;9350;53.176;8.194;2023-12-20T13:57:43;16.00;;;2.30;;
18443;SDS011;9350;53.176;8.194;2023-12-20T14:00:11;11.80;;;2.60;;
18443;SDS011;9350;53.176;8.194;2023-12-20T14:02:39;18.23;;;2.42;;
18443;SDS011;9350;53.176;8.194;2023-12-20T14:05:07;14.88;;;2.72;;
18443;SDS011;9350;53.176;8.194;2023-12-20T14:07:35;19.27;;;2.85;;
18443;SDS011;9350;53.176;8.194;2023-12-20T14:10:02;20.45;;;2.58;;
18443;SDS011;9350;53.176;8.194;2023-12-20T14:12:29;10.77;;;2.05;;
18443;SDS011;9350;53.176;8.194;2023-12-20T14:14:58;11.80;;;2.45;;
18443;SDS011;9350;53.176;8.194;2023-12-20T14:17:25;13.48;;;2.65;;
18443;SDS011;9350;53.176;8.194;2023-12-20T14:19:52;19.85;;;3.25;;
18443;SDS011;9350;53.176;8.194;2023-12-20T14:22:19;12.77;;;2.30;;
18443;SDS011;9350;53.176;8.194;2023-12-20T14:24:46;18.25;;;2.40;;
18443;SDS011;9350;53.176;8.194;2023-12-20T14:27:13;9.90;;;1.88;;
18443;SDS011;9350;53.176;8.194;2023-12-20T14:29:40;17.95;;;2.60;;
18443;SDS011;9350;53.176;8.194;2023-12-20T14:32:08;16.90;;;2.70;;
18443;SDS011;9350;53.176;8.194;2023-12-20T14:34:35;16.70;;;2.22;;
18443;SDS011;9350;53.176;8.194;2023-12-20T14:37:03;14.43;;;2.00;;
18443;SDS011;9350;53.176;8.194;2023-12-20T14:39:30;16.58;;;2.22;;
18443;SDS011;9350;53.176;8.194;2023-12-20T14:41:57;15.50;;;2.42;;
18443;SDS011;9350;53.176;8.194;2023-12-20T14:44:24;17.83;;;2.55;;
18443;SDS011;9350;53.176;8.194;2023-12-20T14:46:51;11.43;;;2.05;;
18443;SDS011;9350;53.176;8.194;2023-12-20T14:49:19;11.70;;;2.40;;
18443;SDS011;9350;53.176;8.194;2023-12-20T14:51:46;10.30;;;2.15;;
18443;SDS011;9350;53.176;8.194;2023-12-20T14:54:13;11.18;;;1.83;;
18443;SDS011;9350;53.176;8.194;2023-12-20T14:56:40;9.18;;;1.65;;